This is the latest recevied weather packets stored in our database for station/object YO4ISC-13. If no packets are shown the sender has not sent any weather packets the latest 10 day(s).
| Time | Temp. | Humidity | Pressure | Rain* | Wind** | Luminosity | Snow |
|---|---|---|---|---|---|---|---|
| 1777665601 | 4.44° C | 80% | 1026 hPa | - | - | - | - |
| 1777665002 | 5° C | 81% | 1026 hPa | - | - | - | - |
| 1777664401 | 5° C | 82% | 1026 hPa | - | - | - | - |
| 1777663802 | 5.56° C | 81% | 1026 hPa | - | - | - | - |
| 1777663201 | 6.11° C | 79% | 1026 hPa | - | - | - | - |
| 1777662602 | 7.22° C | 70% | 1026 hPa | - | - | - | - |
| 1777662001 | 6.67° C | 73% | 1026 hPa | - | - | - | - |
| 1777661402 | 6.67° C | 78% | 1026 hPa | - | - | - | - |
| 1777660801 | 7.22° C | 77% | 1026 hPa | - | - | - | - |
| 1777660202 | 7.22° C | 78% | 1026 hPa | - | - | - | - |
| 1777659602 | 7.78° C | 75% | 1026 hPa | - | - | - | - |
| 1777659002 | 8.33° C | 71% | 1026 hPa | - | - | - | - |
| 1777658402 | 8.33° C | 68% | 1026 hPa | - | - | - | - |
| 1777657801 | 8.33° C | 63% | 1026 hPa | - | - | - | - |
| 1777657202 | 8.33° C | 63% | 1026 hPa | - | - | - | - |
| 1777656601 | 8.33° C | 63% | 1026 hPa | - | - | - | - |
| 1777656002 | 8.33° C | 63% | 1026 hPa | - | - | - | - |
| 1777655401 | 8.33° C | 64% | 1026 hPa | - | - | - | - |
| 1777654802 | 8.33° C | 63% | 1026 hPa | - | - | - | - |
| 1777654202 | 8.33° C | 66% | 1026 hPa | - | - | - | - |
| 1777653602 | 8.33° C | 66% | 1026 hPa | - | - | - | - |
| 1777653002 | 8.89° C | 66% | 1026 hPa | - | - | - | - |
| 1777652402 | 9.44° C | 64% | 1025 hPa | - | - | - | - |
| 1777651802 | 10° C | 61% | 1026 hPa | - | - | - | - |
| 1777651202 | 10.56° C | 57% | 1026 hPa | - | - | - | - |
* Rain since midnight (hover to see other rain measurements)
** Current wind speed in m/s (hover to see current wind gust speed)